sensor_id;sensor_type;location;lat;lon;timestamp;pressure;altitude;pressure_sealevel;temperature;humidity
25510;BME280;13413;52.336;21.200;2022-08-04T00:02:08;100792.34;;;22.89;58.12
25510;BME280;13413;52.336;21.200;2022-08-04T00:11:13;100790.66;;;22.79;58.23
25510;BME280;13413;52.336;21.200;2022-08-04T00:15:41;100792.16;;;22.75;58.33
25510;BME280;13413;52.336;21.200;2022-08-04T00:20:15;100786.70;;;22.70;58.22
25510;BME280;13413;52.336;21.200;2022-08-04T00:24:42;100793.11;;;22.66;58.39
25510;BME280;13413;52.336;21.200;2022-08-04T00:29:10;100788.64;;;22.57;58.31
25510;BME280;13413;52.336;21.200;2022-08-04T00:33:38;100792.40;;;22.62;58.23
25510;BME280;13413;52.336;21.200;2022-08-04T00:38:06;100798.79;;;22.60;58.28
25510;BME280;13413;52.336;21.200;2022-08-04T00:42:43;100797.45;;;22.54;58.25
25510;BME280;13413;52.336;21.200;2022-08-04T00:47:29;100800.27;;;22.55;58.34
25510;BME280;13413;52.336;21.200;2022-08-04T00:52:10;100802.61;;;22.67;58.41
25510;BME280;13413;52.336;21.200;2022-08-04T00:57:02;100800.19;;;22.73;58.27
25510;BME280;13413;52.336;21.200;2022-08-04T01:01:43;100800.82;;;22.72;58.37
25510;BME280;13413;52.336;21.200;2022-08-04T01:06:23;100804.09;;;22.76;58.33
25510;BME280;13413;52.336;21.200;2022-08-04T01:11:01;100809.27;;;22.68;58.32
25510;BME280;13413;52.336;21.200;2022-08-04T01:15:35;100812.55;;;22.64;58.47
25510;BME280;13413;52.336;21.200;2022-08-04T01:20:08;100812.61;;;22.47;58.43
25510;BME280;13413;52.336;21.200;2022-08-04T01:25:00;100805.85;;;22.40;58.64
25510;BME280;13413;52.336;21.200;2022-08-04T01:29:32;100805.30;;;22.37;58.50
25510;BME280;13413;52.336;21.200;2022-08-04T01:34:02;100806.51;;;22.33;58.63
25510;BME280;13413;52.336;21.200;2022-08-04T01:38:35;100813.90;;;22.32;58.82
25510;BME280;13413;52.336;21.200;2022-08-04T01:43:05;100816.05;;;22.32;58.67
25510;BME280;13413;52.336;21.200;2022-08-04T01:47:36;100814.67;;;22.30;58.36
25510;BME280;13413;52.336;21.200;2022-08-04T01:52:08;100814.56;;;22.30;58.62
25510;BME280;13413;52.336;21.200;2022-08-04T01:56:37;100814.70;;;22.31;58.67
25510;BME280;13413;52.336;21.200;2022-08-04T02:01:07;100821.02;;;22.26;58.66
25510;BME280;13413;52.336;21.200;2022-08-04T02:05:36;100817.72;;;22.28;58.49
25510;BME280;13413;52.336;21.200;2022-08-04T02:10:20;100814.42;;;22.25;58.55
25510;BME280;13413;52.336;21.200;2022-08-04T02:14:58;100814.36;;;22.16;58.64
25510;BME280;13413;52.336;21.200;2022-08-04T02:19:31;100805.81;;;22.03;58.79
25510;BME280;13413;52.336;21.200;2022-08-04T02:24:02;100803.71;;;21.89;58.91
25510;BME280;13413;52.336;21.200;2022-08-04T02:28:37;100798.35;;;21.81;59.18
25510;BME280;13413;52.336;21.200;2022-08-04T02:33:06;100795.46;;;21.69;59.27
25510;BME280;13413;52.336;21.200;2022-08-04T02:37:36;100793.50;;;21.63;59.44
25510;BME280;13413;52.336;21.200;2022-08-04T02:42:04;100790.56;;;21.65;59.49
25510;BME280;13413;52.336;21.200;2022-08-04T02:46:32;100787.25;;;21.69;59.45
25510;BME280;13413;52.336;21.200;2022-08-04T02:51:01;100789.05;;;21.70;59.52
25510;BME280;13413;52.336;21.200;2022-08-04T02:55:31;100790.09;;;21.68;59.42
25510;BME280;13413;52.336;21.200;2022-08-04T03:00:06;100789.77;;;21.68;59.50
25510;BME280;13413;52.336;21.200;2022-08-04T03:04:50;100789.27;;;21.75;59.49
25510;BME280;13413;52.336;21.200;2022-08-04T03:09:56;100787.91;;;21.60;59.45
25510;BME280;13413;52.336;21.200;2022-08-04T03:14:56;100796.95;;;21.46;59.80
25510;BME280;13413;52.336;21.200;2022-08-04T03:19:50;100796.75;;;21.37;59.84
25510;BME280;13413;52.336;21.200;2022-08-04T03:29:54;100805.08;;;21.07;60.44
25510;BME280;13413;52.336;21.200;2022-08-04T03:34:38;100807.79;;;21.20;60.33
25510;BME280;13413;52.336;21.200;2022-08-04T03:44:43;100814.86;;;21.13;60.43
25510;BME280;13413;52.336;21.200;2022-08-04T03:49:41;100821.80;;;21.00;60.67
25510;BME280;13413;52.336;21.200;2022-08-04T03:54:32;100823.67;;;20.97;60.78
25510;BME280;13413;52.336;21.200;2022-08-04T03:59:33;100827.80;;;21.01;60.93
25510;BME280;13413;52.336;21.200;2022-08-04T04:09:20;100827.33;;;21.13;60.79
25510;BME280;13413;52.336;21.200;2022-08-04T04:14:14;100829.08;;;21.18;60.81
25510;BME280;13413;52.336;21.200;2022-08-04T04:23:58;100837.65;;;21.24;60.69
25510;BME280;13413;52.336;21.200;2022-08-04T04:29:01;100840.55;;;21.29;60.64
25510;BME280;13413;52.336;21.200;2022-08-04T04:33:35;100841.13;;;21.42;60.40
25510;BME280;13413;52.336;21.200;2022-08-04T04:38:29;100837.77;;;21.61;60.17
25510;BME280;13413;52.336;21.200;2022-08-04T04:43:19;100838.09;;;21.74;59.99
25510;BME280;13413;52.336;21.200;2022-08-04T04:48:06;100837.17;;;21.87;59.81
25510;BME280;13413;52.336;21.200;2022-08-04T04:52:48;100838.96;;;21.98;59.73
25510;BME280;13413;52.336;21.200;2022-08-04T04:57:19;100842.63;;;22.11;59.42
25510;BME280;13413;52.336;21.200;2022-08-04T05:01:57;100846.35;;;22.21;59.50
25510;BME280;13413;52.336;21.200;2022-08-04T05:06:44;100855.71;;;22.35;59.01
25510;BME280;13413;52.336;21.200;2022-08-04T05:16:18;100855.01;;;22.66;58.85
25510;BME280;13413;52.336;21.200;2022-08-04T05:20:47;100857.58;;;22.81;58.52
25510;BME280;13413;52.336;21.200;2022-08-04T05:25:21;100856.11;;;22.93;58.18
25510;BME280;13413;52.336;21.200;2022-08-04T05:29:53;100855.88;;;23.05;57.71
25510;BME280;13413;52.336;21.200;2022-08-04T05:34:25;100859.55;;;23.21;57.47
25510;BME280;13413;52.336;21.200;2022-08-04T05:38:55;100862.38;;;23.36;57.48
25510;BME280;13413;52.336;21.200;2022-08-04T05:43:24;100865.45;;;23.58;57.04
25510;BME280;13413;52.336;21.200;2022-08-04T05:47:51;100869.24;;;23.68;56.44
25510;BME280;13413;52.336;21.200;2022-08-04T05:52:20;100868.39;;;23.86;56.32
25510;BME280;13413;52.336;21.200;2022-08-04T05:56:49;100874.00;;;24.04;55.88
25510;BME280;13413;52.336;21.200;2022-08-04T06:01:19;100875.88;;;24.17;55.60
25510;BME280;13413;52.336;21.200;2022-08-04T06:05:47;100875.77;;;24.33;55.61
25510;BME280;13413;52.336;21.200;2022-08-04T06:10:16;100879.02;;;24.52;55.13
25510;BME280;13413;52.336;21.200;2022-08-04T06:14:44;100882.55;;;24.63;54.47
25510;BME280;13413;52.336;21.200;2022-08-04T06:19:13;100881.91;;;24.81;54.52
25510;BME280;13413;52.336;21.200;2022-08-04T06:23:41;100883.19;;;25.03;54.24
25510;BME280;13413;52.336;21.200;2022-08-04T06:28:08;100880.67;;;25.21;54.00
25510;BME280;13413;52.336;21.200;2022-08-04T06:32:36;100887.27;;;25.36;53.49
25510;BME280;13413;52.336;21.200;2022-08-04T06:37:06;100892.71;;;25.46;52.67
25510;BME280;13413;52.336;21.200;2022-08-04T06:41:34;100889.08;;;25.67;52.56
25510;BME280;13413;52.336;21.200;2022-08-04T06:46:02;100892.17;;;25.80;51.49
25510;BME280;13413;52.336;21.200;2022-08-04T06:50:30;100891.85;;;25.94;50.15
25510;BME280;13413;52.336;21.200;2022-08-04T06:54:59;100890.40;;;26.07;50.12
25510;BME280;13413;52.336;21.200;2022-08-04T06:59:28;100887.91;;;26.28;49.95
25510;BME280;13413;52.336;21.200;2022-08-04T07:08:22;100882.46;;;26.58;48.53
25510;BME280;13413;52.336;21.200;2022-08-04T07:12:50;100879.52;;;26.81;48.44
25510;BME280;13413;52.336;21.200;2022-08-04T07:17:17;100880.82;;;27.10;48.32
25510;BME280;13413;52.336;21.200;2022-08-04T07:21:52;100882.02;;;27.27;47.73
25510;BME280;13413;52.336;21.200;2022-08-04T07:25:24;100881.84;;;27.37;47.16
25510;BME280;13413;52.336;21.200;2022-08-04T07:29:51;100892.20;;;27.64;47.17
25510;BME280;13413;52.336;21.200;2022-08-04T07:34:19;100894.92;;;27.91;46.85
25510;BME280;13413;52.336;21.200;2022-08-04T07:38:47;100889.71;;;28.04;45.21
25510;BME280;13413;52.336;21.200;2022-08-04T07:43:17;100892.13;;;27.99;44.81
25510;BME280;13413;52.336;21.200;2022-08-04T07:47:44;100892.37;;;28.13;45.20
25510;BME280;13413;52.336;21.200;2022-08-04T07:52:13;100892.00;;;28.26;44.38
25510;BME280;13413;52.336;21.200;2022-08-04T07:56:41;100890.39;;;28.42;43.26
25510;BME280;13413;52.336;21.200;2022-08-04T08:01:09;100883.48;;;28.59;43.26
25510;BME280;13413;52.336;21.200;2022-08-04T08:05:39;100882.46;;;28.63;42.48
25510;BME280;13413;52.336;21.200;2022-08-04T08:10:12;100880.41;;;28.71;42.39
25510;BME280;13413;52.336;21.200;2022-08-04T08:14:39;100881.08;;;28.80;41.22
25510;BME280;13413;52.336;21.200;2022-08-04T08:23:38;100878.91;;;28.92;41.22
25510;BME280;13413;52.336;21.200;2022-08-04T08:28:06;100880.84;;;29.04;41.34
25510;BME280;13413;52.336;21.200;2022-08-04T08:32:35;100880.00;;;29.07;40.73
25510;BME280;13413;52.336;21.200;2022-08-04T08:37:08;100882.42;;;29.24;40.75
25510;BME280;13413;52.336;21.200;2022-08-04T08:42:06;100884.73;;;29.44;40.51
25510;BME280;13413;52.336;21.200;2022-08-04T08:51:14;100885.10;;;29.73;40.58
25510;BME280;13413;52.336;21.200;2022-08-04T08:54:58;100886.98;;;29.83;40.15
25510;BME280;13413;52.336;21.200;2022-08-04T08:59:44;100886.88;;;29.60;39.37
25510;BME280;13413;52.336;21.200;2022-08-04T09:04:54;100886.95;;;29.79;39.59
25510;BME280;13413;52.336;21.200;2022-08-04T09:09:44;100879.67;;;30.01;39.50
25510;BME280;13413;52.336;21.200;2022-08-04T09:14:20;100876.58;;;30.03;39.47
25510;BME280;13413;52.336;21.200;2022-08-04T09:18:55;100876.04;;;30.42;39.24
25510;BME280;13413;52.336;21.200;2022-08-04T09:23:35;100869.64;;;30.47;39.49
25510;BME280;13413;52.336;21.200;2022-08-04T09:28:22;100870.94;;;30.70;39.39
25510;BME280;13413;52.336;21.200;2022-08-04T09:33:00;100869.44;;;31.30;39.23
25510;BME280;13413;52.336;21.200;2022-08-04T09:37:39;100864.99;;;31.31;38.71
25510;BME280;13413;52.336;21.200;2022-08-04T09:42:17;100870.83;;;31.48;37.71
25510;BME280;13413;52.336;21.200;2022-08-04T09:46:51;100866.80;;;31.39;37.60
25510;BME280;13413;52.336;21.200;2022-08-04T09:51:33;100871.61;;;31.35;37.05
25510;BME280;13413;52.336;21.200;2022-08-04T09:56:09;100873.73;;;31.95;37.57
25510;BME280;13413;52.336;21.200;2022-08-04T10:00:47;100876.97;;;32.48;37.29
25510;BME280;13413;52.336;21.200;2022-08-04T10:05:20;100867.34;;;32.94;35.92
25510;BME280;13413;52.336;21.200;2022-08-04T10:09:59;100868.62;;;32.24;35.68
25510;BME280;13413;52.336;21.200;2022-08-04T10:14:39;100870.34;;;32.08;35.88
25510;BME280;13413;52.336;21.200;2022-08-04T10:19:18;100869.40;;;32.33;36.01
25510;BME280;13413;52.336;21.200;2022-08-04T10:24:14;100863.92;;;33.05;35.88
25510;BME280;13413;52.336;21.200;2022-08-04T10:29:02;100860.54;;;33.43;34.86
25510;BME280;13413;52.336;21.200;2022-08-04T10:33:36;100859.95;;;33.59;34.80
25510;BME280;13413;52.336;21.200;2022-08-04T10:38:18;100856.95;;;33.79;34.82
25510;BME280;13413;52.336;21.200;2022-08-04T10:42:56;100848.27;;;34.15;34.37
25510;BME280;13413;52.336;21.200;2022-08-04T10:47:33;100845.76;;;34.41;33.82
25510;BME280;13413;52.336;21.200;2022-08-04T10:52:07;100844.86;;;34.51;33.01
25510;BME280;13413;52.336;21.200;2022-08-04T10:56:37;100842.10;;;34.43;32.73
25510;BME280;13413;52.336;21.200;2022-08-04T11:01:13;100833.24;;;34.99;32.82
25510;BME280;13413;52.336;21.200;2022-08-04T11:05:48;100836.52;;;35.22;31.76
25510;BME280;13413;52.336;21.200;2022-08-04T11:10:21;100829.38;;;35.25;31.79
25510;BME280;13413;52.336;21.200;2022-08-04T11:14:53;100830.20;;;35.33;31.26
25510;BME280;13413;52.336;21.200;2022-08-04T11:19:32;100832.75;;;35.20;30.68
25510;BME280;13413;52.336;21.200;2022-08-04T11:24:03;100825.95;;;35.15;31.52
25510;BME280;13413;52.336;21.200;2022-08-04T11:28:45;100824.38;;;35.26;30.44
25510;BME280;13413;52.336;21.200;2022-08-04T11:33:22;100818.94;;;34.29;30.36
25510;BME280;13413;52.336;21.200;2022-08-04T11:38:01;100813.50;;;34.39;31.43
25510;BME280;13413;52.336;21.200;2022-08-04T11:42:37;100818.96;;;34.63;31.51
25510;BME280;13413;52.336;21.200;2022-08-04T11:47:10;100817.04;;;34.44;30.05
25510;BME280;13413;52.336;21.200;2022-08-04T11:51:43;100812.50;;;34.29;31.06
25510;BME280;13413;52.336;21.200;2022-08-04T11:56:15;100816.97;;;34.42;31.09
25510;BME280;13413;52.336;21.200;2022-08-04T12:00:52;100818.73;;;34.92;30.84
25510;BME280;13413;52.336;21.200;2022-08-04T12:05:31;100810.45;;;35.44;30.64
25510;BME280;13413;52.336;21.200;2022-08-04T12:10:13;100813.70;;;35.34;30.39
25510;BME280;13413;52.336;21.200;2022-08-04T12:15:07;100798.40;;;35.30;30.10
25510;BME280;13413;52.336;21.200;2022-08-04T12:19:43;100800.04;;;35.32;30.01
25510;BME280;13413;52.336;21.200;2022-08-04T12:24:19;100800.36;;;34.41;29.51
25510;BME280;13413;52.336;21.200;2022-08-04T12:28:50;100799.15;;;33.77;30.20
25510;BME280;13413;52.336;21.200;2022-08-04T12:33:23;100789.81;;;33.86;29.90
25510;BME280;13413;52.336;21.200;2022-08-04T12:37:59;100787.63;;;33.69;30.21
25510;BME280;13413;52.336;21.200;2022-08-04T12:42:35;100786.39;;;33.55;30.58
25510;BME280;13413;52.336;21.200;2022-08-04T12:47:09;100774.58;;;33.43;31.16
25510;BME280;13413;52.336;21.200;2022-08-04T12:51:41;100770.35;;;33.87;31.45
25510;BME280;13413;52.336;21.200;2022-08-04T12:56:12;100774.58;;;34.13;31.46
25510;BME280;13413;52.336;21.200;2022-08-04T13:00:40;100767.66;;;34.28;31.20
25510;BME280;13413;52.336;21.200;2022-08-04T13:05:10;100759.89;;;34.44;31.42
25510;BME280;13413;52.336;21.200;2022-08-04T13:09:40;100761.59;;;34.18;30.69
25510;BME280;13413;52.336;21.200;2022-08-04T13:14:08;100755.93;;;33.81;31.25
25510;BME280;13413;52.336;21.200;2022-08-04T13:18:39;100764.20;;;34.07;30.93
25510;BME280;13413;52.336;21.200;2022-08-04T13:23:09;100753.77;;;34.20;30.54
25510;BME280;13413;52.336;21.200;2022-08-04T13:27:40;100755.17;;;34.15;30.68
25510;BME280;13413;52.336;21.200;2022-08-04T13:32:08;100753.95;;;34.03;30.89
25510;BME280;13413;52.336;21.200;2022-08-04T13:36:38;100749.23;;;34.11;30.45
25510;BME280;13413;52.336;21.200;2022-08-04T13:41:06;100740.05;;;34.04;30.65
25510;BME280;13413;52.336;21.200;2022-08-04T13:45:37;100741.77;;;34.10;30.58
25510;BME280;13413;52.336;21.200;2022-08-04T13:50:21;100736.20;;;34.10;30.76
25510;BME280;13413;52.336;21.200;2022-08-04T13:54:50;100733.92;;;33.72;30.82
25510;BME280;13413;52.336;21.200;2022-08-04T13:59:18;100728.63;;;33.66;30.45
25510;BME280;13413;52.336;21.200;2022-08-04T14:03:58;100725.24;;;33.45;30.94
25510;BME280;13413;52.336;21.200;2022-08-04T14:08:29;100724.13;;;33.39;30.47
25510;BME280;13413;52.336;21.200;2022-08-04T14:12:58;100719.77;;;33.46;30.74
25510;BME280;13413;52.336;21.200;2022-08-04T14:17:27;100717.84;;;33.28;30.42
25510;BME280;13413;52.336;21.200;2022-08-04T14:21:55;100717.50;;;33.16;30.19
25510;BME280;13413;52.336;21.200;2022-08-04T14:26:42;100712.48;;;32.84;29.93
25510;BME280;13413;52.336;21.200;2022-08-04T14:30:21;100704.22;;;32.70;29.78
25510;BME280;13413;52.336;21.200;2022-08-04T14:34:49;100701.63;;;32.70;30.02
25510;BME280;13413;52.336;21.200;2022-08-04T14:39:15;100698.69;;;32.57;29.77
25510;BME280;13413;52.336;21.200;2022-08-04T14:43:45;100701.71;;;32.51;29.63
25510;BME280;13413;52.336;21.200;2022-08-04T14:52:48;100697.33;;;32.70;30.49
25510;BME280;13413;52.336;21.200;2022-08-04T14:57:16;100698.41;;;32.76;30.77
25510;BME280;13413;52.336;21.200;2022-08-04T15:01:46;100695.27;;;32.76;30.91
25510;BME280;13413;52.336;21.200;2022-08-04T15:06:15;100695.34;;;32.77;31.25
25510;BME280;13413;52.336;21.200;2022-08-04T15:10:44;100694.48;;;32.82;31.14
25510;BME280;13413;52.336;21.200;2022-08-04T15:15:12;100692.93;;;32.79;31.10
25510;BME280;13413;52.336;21.200;2022-08-04T15:19:41;100688.08;;;32.77;31.11
25510;BME280;13413;52.336;21.200;2022-08-04T15:24:10;100689.49;;;32.80;31.47
25510;BME280;13413;52.336;21.200;2022-08-04T15:28:40;100691.06;;;32.75;31.21
25510;BME280;13413;52.336;21.200;2022-08-04T15:33:09;100685.45;;;32.68;31.16
25510;BME280;13413;52.336;21.200;2022-08-04T15:37:44;100680.77;;;32.57;30.99
25510;BME280;13413;52.336;21.200;2022-08-04T15:42:29;100680.60;;;32.49;31.07
25510;BME280;13413;52.336;21.200;2022-08-04T15:47:14;100677.26;;;32.48;31.03
25510;BME280;13413;52.336;21.200;2022-08-04T15:51:43;100678.09;;;32.42;31.09
25510;BME280;13413;52.336;21.200;2022-08-04T15:56:44;100678.75;;;32.35;30.98
25510;BME280;13413;52.336;21.200;2022-08-04T16:01:15;100682.14;;;32.27;31.09
25510;BME280;13413;52.336;21.200;2022-08-04T16:05:43;100684.40;;;32.29;31.05
25510;BME280;13413;52.336;21.200;2022-08-04T16:10:35;100683.40;;;32.25;30.64
25510;BME280;13413;52.336;21.200;2022-08-04T16:20:08;100678.15;;;32.15;30.46
25510;BME280;13413;52.336;21.200;2022-08-04T16:24:40;100677.25;;;32.19;30.34
25510;BME280;13413;52.336;21.200;2022-08-04T16:29:25;100676.38;;;32.19;30.55
25510;BME280;13413;52.336;21.200;2022-08-04T16:33:58;100673.49;;;32.10;30.25
25510;BME280;13413;52.336;21.200;2022-08-04T16:38:27;100668.31;;;32.07;30.25
25510;BME280;13413;52.336;21.200;2022-08-04T16:42:59;100667.86;;;31.99;30.33
25510;BME280;13413;52.336;21.200;2022-08-04T16:48:00;100665.36;;;31.98;30.34
25510;BME280;13413;52.336;21.200;2022-08-04T16:52:28;100660.27;;;31.88;29.87
25510;BME280;13413;52.336;21.200;2022-08-04T16:56:58;100664.90;;;31.80;29.96
25510;BME280;13413;52.336;21.200;2022-08-04T17:01:25;100661.11;;;31.73;30.17
25510;BME280;13413;52.336;21.200;2022-08-04T17:06:09;100665.58;;;31.61;30.34
25510;BME280;13413;52.336;21.200;2022-08-04T17:15:21;100663.93;;;31.64;30.71
25510;BME280;13413;52.336;21.200;2022-08-04T17:19:53;100661.24;;;31.50;30.90
25510;BME280;13413;52.336;21.200;2022-08-04T17:24:21;100662.68;;;31.43;31.02
25510;BME280;13413;52.336;21.200;2022-08-04T17:28:50;100663.13;;;31.31;31.63
25510;BME280;13413;52.336;21.200;2022-08-04T17:33:19;100663.73;;;31.18;31.98
25510;BME280;13413;52.336;21.200;2022-08-04T17:37:48;100667.95;;;31.11;32.47
25510;BME280;13413;52.336;21.200;2022-08-04T17:42:29;100668.68;;;31.06;32.55
25510;BME280;13413;52.336;21.200;2022-08-04T17:47:14;100665.20;;;30.98;32.74
25510;BME280;13413;52.336;21.200;2022-08-04T17:51:51;100668.46;;;30.88;33.02
25510;BME280;13413;52.336;21.200;2022-08-04T17:55:21;100670.06;;;30.78;33.34
25510;BME280;13413;52.336;21.200;2022-08-04T17:59:53;100667.80;;;30.66;33.53
25510;BME280;13413;52.336;21.200;2022-08-04T18:04:28;100668.41;;;30.58;33.81
25510;BME280;13413;52.336;21.200;2022-08-04T18:08:58;100668.08;;;30.49;34.11
25510;BME280;13413;52.336;21.200;2022-08-04T18:13:28;100669.54;;;30.28;34.49
25510;BME280;13413;52.336;21.200;2022-08-04T18:17:56;100675.81;;;30.13;35.05
25510;BME280;13413;52.336;21.200;2022-08-04T18:22:26;100678.28;;;30.05;35.23
25510;BME280;13413;52.336;21.200;2022-08-04T18:26:57;100677.44;;;29.91;35.70
25510;BME280;13413;52.336;21.200;2022-08-04T18:31:26;100677.82;;;29.71;35.95
25510;BME280;13413;52.336;21.200;2022-08-04T18:40:36;100679.38;;;29.29;36.84
25510;BME280;13413;52.336;21.200;2022-08-04T18:45:07;100682.02;;;29.28;36.94
25510;BME280;13413;52.336;21.200;2022-08-04T18:49:35;100685.45;;;29.19;37.26
25510;BME280;13413;52.336;21.200;2022-08-04T18:54:05;100683.88;;;29.13;37.25
25510;BME280;13413;52.336;21.200;2022-08-04T18:58:34;100684.41;;;28.99;37.64
25510;BME280;13413;52.336;21.200;2022-08-04T19:03:04;100683.38;;;28.88;37.66
25510;BME280;13413;52.336;21.200;2022-08-04T19:07:34;100683.09;;;28.79;37.97
25510;BME280;13413;52.336;21.200;2022-08-04T19:16:31;100692.55;;;28.51;39.12
25510;BME280;13413;52.336;21.200;2022-08-04T19:21:01;100693.96;;;28.31;39.62
25510;BME280;13413;52.336;21.200;2022-08-04T19:25:30;100689.11;;;28.05;40.18
25510;BME280;13413;52.336;21.200;2022-08-04T19:29:59;100691.15;;;27.91;40.15
25510;BME280;13413;52.336;21.200;2022-08-04T19:34:27;100699.16;;;27.83;40.27
25510;BME280;13413;52.336;21.200;2022-08-04T19:38:56;100697.10;;;27.80;40.67
25510;BME280;13413;52.336;21.200;2022-08-04T19:43:24;100701.44;;;27.65;41.18
25510;BME280;13413;52.336;21.200;2022-08-04T19:47:52;100700.13;;;27.47;41.21
25510;BME280;13413;52.336;21.200;2022-08-04T19:52:21;100698.86;;;27.33;41.74
25510;BME280;13413;52.336;21.200;2022-08-04T19:56:50;100697.89;;;27.16;42.13
25510;BME280;13413;52.336;21.200;2022-08-04T20:01:17;100698.59;;;27.15;41.95
25510;BME280;13413;52.336;21.200;2022-08-04T20:05:46;100698.39;;;27.12;41.75
25510;BME280;13413;52.336;21.200;2022-08-04T20:10:15;100695.15;;;27.01;41.82
25510;BME280;13413;52.336;21.200;2022-08-04T20:14:43;100696.48;;;26.88;41.80
25510;BME280;13413;52.336;21.200;2022-08-04T20:19:11;100703.80;;;26.85;41.99
25510;BME280;13413;52.336;21.200;2022-08-04T20:23:40;100704.02;;;26.84;42.16
25510;BME280;13413;52.336;21.200;2022-08-04T20:28:09;100707.41;;;26.77;42.30
25510;BME280;13413;52.336;21.200;2022-08-04T20:32:36;100708.77;;;26.70;42.40
25510;BME280;13413;52.336;21.200;2022-08-04T20:37:05;100709.16;;;26.63;42.68
25510;BME280;13413;52.336;21.200;2022-08-04T20:41:34;100710.69;;;26.44;42.81
25510;BME280;13413;52.336;21.200;2022-08-04T20:46:03;100713.45;;;26.38;42.88
25510;BME280;13413;52.336;21.200;2022-08-04T20:50:31;100712.80;;;26.27;43.04
25510;BME280;13413;52.336;21.200;2022-08-04T20:54:59;100709.91;;;26.28;43.19
25510;BME280;13413;52.336;21.200;2022-08-04T20:59:27;100704.33;;;26.21;43.37
25510;BME280;13413;52.336;21.200;2022-08-04T21:03:54;100704.33;;;26.16;43.64
25510;BME280;13413;52.336;21.200;2022-08-04T21:08:25;100705.88;;;26.08;43.75
25510;BME280;13413;52.336;21.200;2022-08-04T21:12:53;100711.23;;;25.92;44.12
25510;BME280;13413;52.336;21.200;2022-08-04T21:17:20;100709.30;;;25.82;44.33
25510;BME280;13413;52.336;21.200;2022-08-04T21:22:08;100711.19;;;25.77;44.69
25510;BME280;13413;52.336;21.200;2022-08-04T21:25:35;100705.04;;;25.75;44.93
25510;BME280;13413;52.336;21.200;2022-08-04T21:30:05;100704.30;;;25.67;45.18
25510;BME280;13413;52.336;21.200;2022-08-04T21:34:53;100703.72;;;25.57;45.38
25510;BME280;13413;52.336;21.200;2022-08-04T21:38:20;100702.27;;;25.58;45.50
25510;BME280;13413;52.336;21.200;2022-08-04T21:42:48;100702.20;;;25.55;45.76
25510;BME280;13413;52.336;21.200;2022-08-04T21:47:16;100701.74;;;25.45;45.84
25510;BME280;13413;52.336;21.200;2022-08-04T21:51:44;100707.20;;;25.27;46.06
25510;BME280;13413;52.336;21.200;2022-08-04T21:56:13;100706.59;;;25.17;46.37
25510;BME280;13413;52.336;21.200;2022-08-04T22:00:42;100708.73;;;25.09;46.61
25510;BME280;13413;52.336;21.200;2022-08-04T22:05:11;100709.55;;;25.02;46.87
25510;BME280;13413;52.336;21.200;2022-08-04T22:09:39;100706.48;;;24.83;47.12
25510;BME280;13413;52.336;21.200;2022-08-04T22:14:08;100705.10;;;24.83;47.29
25510;BME280;13413;52.336;21.200;2022-08-04T22:18:37;100698.97;;;24.75;47.46
25510;BME280;13413;52.336;21.200;2022-08-04T22:23:05;100702.81;;;24.66;47.57
25510;BME280;13413;52.336;21.200;2022-08-04T22:27:33;100697.52;;;24.57;47.72
25510;BME280;13413;52.336;21.200;2022-08-04T22:32:22;100695.65;;;24.46;47.99
25510;BME280;13413;52.336;21.200;2022-08-04T22:36:50;100693.91;;;24.33;48.19
25510;BME280;13413;52.336;21.200;2022-08-04T22:41:20;100688.59;;;24.21;48.69
25510;BME280;13413;52.336;21.200;2022-08-04T22:45:49;100689.79;;;23.98;48.94
25510;BME280;13413;52.336;21.200;2022-08-04T22:50:17;100689.18;;;23.80;49.23
25510;BME280;13413;52.336;21.200;2022-08-04T22:54:46;100686.23;;;23.77;49.45
25510;BME280;13413;52.336;21.200;2022-08-04T22:59:14;100686.44;;;23.82;49.43
25510;BME280;13413;52.336;21.200;2022-08-04T23:03:43;100689.54;;;23.69;49.62
25510;BME280;13413;52.336;21.200;2022-08-04T23:08:11;100681.58;;;23.69;49.68
25510;BME280;13413;52.336;21.200;2022-08-04T23:12:39;100678.88;;;23.75;49.69
25510;BME280;13413;52.336;21.200;2022-08-04T23:17:08;100671.72;;;23.69;49.91
25510;BME280;13413;52.336;21.200;2022-08-04T23:21:36;100670.23;;;23.53;50.09
25510;BME280;13413;52.336;21.200;2022-08-04T23:26:11;100663.13;;;23.41;50.33
25510;BME280;13413;52.336;21.200;2022-08-04T23:30:39;100653.77;;;23.46;50.40
25510;BME280;13413;52.336;21.200;2022-08-04T23:35:08;100651.06;;;23.34;50.59
25510;BME280;13413;52.336;21.200;2022-08-04T23:39:35;100654.77;;;23.35;50.83
25510;BME280;13413;52.336;21.200;2022-08-04T23:44:05;100649.69;;;23.28;50.80
25510;BME280;13413;52.336;21.200;2022-08-04T23:48:33;100647.19;;;23.28;51.00
25510;BME280;13413;52.336;21.200;2022-08-04T23:53:02;100643.16;;;23.25;51.20
25510;BME280;13413;52.336;21.200;2022-08-04T23:57:32;100639.12;;;23.28;51.37
